createdAt,value
2023-01-29T00:04:23.409Z,4.50
2023-01-29T00:09:54.657Z,4.50
2023-01-29T00:15:25.894Z,4.03
2023-01-29T00:20:57.349Z,3.50
2023-01-29T00:26:29.138Z,3.85
2023-01-29T00:32:00.446Z,4.80
2023-01-29T00:37:31.972Z,3.80
2023-01-29T00:43:21.582Z,4.20
2023-01-29T00:48:52.981Z,4.28
2023-01-29T00:54:24.221Z,4.07
2023-01-29T00:59:55.196Z,4.05
2023-01-29T01:05:27.064Z,4.13
2023-01-29T01:11:00.664Z,3.17
2023-01-29T01:16:31.854Z,4.10
2023-01-29T01:22:05.127Z,3.67
2023-01-29T01:27:41.033Z,4.00
2023-01-29T01:33:12.130Z,3.50
2023-01-29T01:38:46.460Z,4.00
2023-01-29T01:44:53.636Z,3.90
2023-01-29T01:50:50.731Z,3.60
2023-01-29T01:56:27.068Z,3.53
2023-01-29T02:01:58.710Z,3.45
2023-01-29T02:07:48.672Z,3.55
2023-01-29T02:13:19.962Z,4.03
2023-01-29T02:18:51.692Z,3.47
2023-01-29T02:24:42.578Z,3.42
2023-01-29T02:30:26.804Z,3.25
2023-01-29T02:36:30.444Z,3.70
2023-01-29T02:42:28.778Z,3.55
2023-01-29T02:48:02.039Z,3.60
2023-01-29T02:53:39.401Z,3.87
2023-01-29T02:59:15.522Z,3.80
2023-01-29T03:04:51.743Z,3.65
2023-01-29T03:10:39.408Z,3.60
2023-01-29T03:16:12.904Z,3.28
2023-01-29T03:21:55.368Z,3.05
2023-01-29T03:28:10.799Z,3.65
2023-01-29T03:33:50.940Z,3.30
2023-01-29T03:39:25.167Z,3.70
2023-01-29T03:45:06.453Z,3.58
2023-01-29T03:50:59.469Z,3.17
2023-01-29T03:56:49.013Z,3.15
2023-01-29T04:02:28.065Z,3.10
2023-01-29T04:08:07.350Z,3.15
2023-01-29T04:13:39.191Z,3.25
2023-01-29T04:19:10.763Z,3.15
2023-01-29T04:24:45.365Z,3.25
2023-01-29T04:30:25.770Z,3.30
2023-01-29T04:36:07.255Z,2.80
2023-01-29T04:41:47.749Z,3.05
2023-01-29T04:47:43.023Z,2.72
2023-01-29T04:53:45.609Z,3.42
2023-01-29T04:59:21.983Z,3.20
2023-01-29T05:04:54.441Z,3.40
2023-01-29T05:10:25.756Z,3.25
2023-01-29T05:16:02.748Z,2.90
2023-01-29T05:21:34.181Z,3.08
2023-01-29T05:27:23.819Z,2.95
2023-01-29T05:32:55.370Z,2.90
2023-01-29T05:38:26.567Z,3.03
2023-01-29T05:43:57.896Z,2.90
2023-01-29T05:49:29.167Z,2.50
2023-01-29T05:55:00.291Z,3.17
2023-01-29T06:00:31.319Z,2.95
2023-01-29T06:06:02.768Z,2.60
2023-01-29T06:11:34.206Z,3.38
2023-01-29T06:17:05.772Z,3.10
2023-01-29T06:22:37.006Z,2.88
2023-01-29T06:28:08.452Z,2.92
2023-01-29T06:33:39.940Z,3.20
2023-01-29T06:39:11.392Z,3.20
2023-01-29T06:44:42.818Z,2.83
2023-01-29T06:50:13.927Z,2.72
2023-01-29T06:55:51.816Z,2.80
2023-01-29T07:01:35.233Z,3.47
2023-01-29T07:07:13.431Z,2.67
2023-01-29T07:12:44.885Z,2.65
2023-01-29T07:18:16.345Z,2.65
2023-01-29T07:23:47.564Z,2.80
2023-01-29T07:29:18.469Z,3.53
2023-01-29T07:34:49.666Z,3.55
2023-01-29T07:40:20.786Z,3.35
2023-01-29T07:45:52.278Z,3.17
2023-01-29T07:51:23.705Z,3.60
2023-01-29T07:56:55.579Z,3.45
2023-01-29T08:02:26.825Z,3.33
2023-01-29T08:08:06.539Z,3.75
2023-01-29T08:13:38.593Z,4.13
2023-01-29T08:19:09.831Z,3.97
2023-01-29T08:24:53.429Z,3.97
2023-01-29T08:30:33.810Z,4.60
2023-01-29T08:36:05.515Z,4.15
2023-01-29T08:41:36.559Z,3.90
2023-01-29T08:47:07.496Z,4.53
2023-01-29T08:52:38.637Z,4.13
2023-01-29T09:39:47.309Z,4.15
2023-01-29T09:45:25.148Z,3.88
2023-01-29T09:50:59.276Z,3.95
2023-01-29T09:56:30.752Z,3.55
2023-01-29T10:02:06.438Z,4.10
2023-01-29T10:08:02.169Z,3.80
2023-01-29T10:13:48.425Z,3.90
2023-01-29T10:19:38.092Z,4.05
2023-01-29T10:25:15.243Z,3.45
2023-01-29T10:30:52.205Z,3.72
2023-01-29T10:36:34.245Z,3.63
2023-01-29T10:42:31.546Z,3.72
2023-01-29T10:48:30.096Z,3.90
2023-01-29T11:25:21.674Z,3.65
2023-01-29T11:30:53.655Z,3.72
2023-01-29T11:36:45.927Z,3.63
2023-01-29T11:42:21.776Z,3.92
2023-01-29T11:47:55.391Z,3.80
2023-01-29T11:53:45.399Z,3.77
2023-01-29T11:59:37.398Z,3.90
2023-01-29T12:05:20.432Z,3.72
2023-01-29T12:10:51.825Z,3.70
2023-01-29T12:17:00.111Z,3.38
2023-01-29T12:22:50.161Z,3.70
2023-01-29T12:28:39.385Z,3.90
2023-01-29T12:34:23.526Z,3.92
2023-01-29T12:39:58.103Z,4.05
2023-01-29T12:45:29.645Z,3.65
2023-01-29T12:51:16.101Z,3.63
2023-01-29T12:56:49.704Z,3.97
2023-01-29T13:02:37.606Z,3.75
2023-01-29T13:08:28.007Z,4.00
2023-01-29T13:14:05.904Z,3.80
2023-01-29T13:19:41.266Z,3.80
2023-01-29T13:25:20.365Z,4.57
2023-01-29T13:31:11.960Z,3.97
2023-01-29T13:36:48.460Z,4.05
2023-01-29T13:42:21.019Z,4.15
2023-01-29T13:47:53.520Z,3.83
2023-01-29T13:53:27.848Z,4.00
2023-01-29T13:58:59.752Z,4.00
2023-01-29T14:04:32.767Z,3.78
2023-01-29T14:10:17.135Z,4.10
2023-01-29T14:15:58.046Z,4.10
2023-01-29T14:21:34.573Z,3.70
2023-01-29T14:27:06.037Z,3.75
2023-01-29T14:32:39.847Z,4.00
2023-01-29T14:38:13.557Z,4.05
2023-01-29T14:43:44.924Z,3.72
2023-01-29T14:49:54.630Z,3.90
2023-01-29T14:55:45.416Z,4.57
2023-01-29T15:01:23.441Z,4.13
2023-01-29T15:07:06.600Z,4.50
2023-01-29T15:12:50.205Z,4.18
2023-01-29T15:18:29.736Z,4.45
2023-01-29T15:24:06.252Z,4.30
2023-01-29T15:29:38.367Z,4.13
2023-01-29T15:35:29.185Z,4.18
2023-01-29T15:41:02.740Z,4.10
2023-01-29T15:46:36.659Z,4.87
2023-01-29T15:52:19.667Z,4.85
2023-01-29T15:57:51.340Z,5.80
2023-01-29T16:03:25.298Z,5.90
2023-01-29T16:08:56.819Z,6.20
2023-01-29T16:14:29.006Z,5.70
2023-01-29T16:20:02.523Z,5.28
2023-01-29T16:25:35.520Z,5.60
2023-01-29T16:31:11.416Z,6.03
2023-01-29T16:36:46.810Z,4.90
2023-01-29T16:42:20.233Z,4.72
2023-01-29T16:48:20.935Z,5.32
2023-01-29T16:54:07.485Z,4.88
2023-01-29T16:59:39.781Z,4.70
2023-01-29T17:05:26.828Z,5.18
2023-01-29T17:10:57.773Z,5.15
2023-01-29T17:16:30.319Z,5.55
2023-01-29T17:22:05.682Z,5.03
2023-01-29T17:27:40.961Z,4.68
2023-01-29T17:33:22.987Z,5.00
2023-01-29T17:38:54.154Z,5.00
2023-01-29T17:44:28.355Z,5.10
2023-01-29T17:50:00.205Z,5.70
2023-01-29T17:55:31.649Z,5.03
2023-01-29T18:01:02.734Z,4.93
2023-01-29T18:06:33.827Z,5.13
2023-01-29T18:12:08.989Z,5.30
2023-01-29T18:17:40.694Z,4.47
2023-01-29T18:23:12.823Z,4.88
2023-01-29T18:28:44.158Z,4.90
2023-01-29T18:34:15.368Z,4.68
2023-01-29T18:39:46.434Z,5.68
2023-01-29T18:45:17.741Z,5.00
2023-01-29T18:50:50.769Z,4.97
2023-01-29T18:56:21.886Z,6.07
2023-01-29T19:01:53.225Z,5.13
2023-01-29T19:07:24.696Z,5.78
2023-01-29T19:12:56.301Z,5.35
2023-01-29T19:18:28.740Z,5.88
2023-01-29T19:23:59.955Z,5.93
2023-01-29T19:29:30.949Z,6.70
2023-01-29T19:35:02.418Z,5.97
2023-01-29T19:40:33.581Z,6.70
2023-01-29T19:46:04.797Z,5.75
2023-01-29T19:51:35.858Z,5.97
2023-01-29T19:57:07.846Z,5.60
2023-01-29T20:02:39.523Z,5.88
2023-01-29T20:08:10.737Z,5.85
2023-01-29T20:13:41.822Z,5.95
2023-01-29T20:19:13.182Z,6.38
2023-01-29T20:24:46.468Z,6.30
2023-01-29T20:30:18.372Z,5.75
2023-01-29T20:36:01.212Z,6.50
2023-01-29T20:41:32.189Z,6.15
2023-01-29T20:47:04.305Z,6.25
2023-01-29T20:52:36.939Z,6.63
2023-01-29T20:58:09.595Z,6.00
2023-01-29T21:03:40.691Z,6.20
2023-01-29T21:09:11.680Z,6.38
2023-01-29T21:14:42.652Z,5.82
2023-01-29T21:20:14.054Z,6.57
2023-01-29T21:25:45.876Z,5.70
2023-01-29T21:31:17.842Z,7.15
2023-01-29T21:36:48.848Z,6.85
2023-01-29T21:42:38.636Z,6.85
2023-01-29T21:48:11.584Z,6.10
2023-01-29T21:53:42.569Z,6.90
2023-01-29T21:59:13.637Z,6.28
2023-01-29T22:04:44.677Z,6.80
2023-01-29T22:10:17.855Z,6.55
2023-01-29T22:15:49.860Z,5.95
2023-01-29T22:21:21.039Z,6.20
2023-01-29T22:26:52.044Z,6.38
2023-01-29T22:32:23.039Z,7.10
2023-01-29T22:37:54.295Z,6.85
2023-01-29T22:43:29.457Z,7.28
2023-01-29T22:49:00.515Z,7.35
2023-01-29T22:54:31.563Z,6.82
2023-01-29T23:00:06.905Z,6.93
2023-01-29T23:05:38.267Z,7.65
2023-01-29T23:11:18.773Z,7.18
2023-01-29T23:16:49.941Z,7.55
2023-01-29T23:22:21.281Z,7.70
2023-01-29T23:27:52.513Z,7.13
2023-01-29T23:33:23.924Z,7.30
2023-01-29T23:38:54.907Z,7.78
2023-01-29T23:44:26.015Z,7.70
2023-01-29T23:49:56.964Z,7.15
2023-01-29T23:55:28.082Z,7.57
